Time;durP1;ratioP1;P1;durP2;ratioP2;P2;SDS_P1;SDS_P2;PMS_P1;PMS_P2;Temp;Humidity;BMP_temperature;BMP_pressure;BME280_temperature;BME280_humidity;BME280_pressure;Samples;Min_cycle;Max_cycle;Signal;HPM_P1;HPM_P2
2023/10/03 00:02:30;;;;;;;2.03;1.73;;;;;;;;;;5894631;28;20127;-75
2023/10/03 00:05:28;;;;;;;2.03;1.05;;;;;;;;;;5910305;28;20048;-75
2023/10/03 00:08:19;;;;;;;3.83;1.60;;;;;;;;;;5910417;28;20044;-75
2023/10/03 00:11:18;;;;;;;21.40;2.58;;;;;;;;;;5910030;28;20056;-74
2023/10/03 00:14:11;;;;;;;5.70;1.98;;;;;;;;;;5910454;28;20493;-75
2023/10/03 00:17:02;;;;;;;6.57;1.85;;;;;;;;;;5910024;28;20052;-74
2023/10/03 00:19:53;;;;;;;2.30;1.25;;;;;;;;;;5910685;28;20045;-74
2023/10/03 00:22:47;;;;;;;6.05;1.88;;;;;;;;;;5910073;28;20055;-75
2023/10/03 00:25:38;;;;;;;4.35;1.35;;;;;;;;;;5892357;28;20051;-75
2023/10/03 00:28:33;;;;;;;4.07;1.48;;;;;;;;;;5909905;28;20041;-75
2023/10/03 00:31:24;;;;;;;0.98;0.95;;;;;;;;;;5909819;28;20048;-74
2023/10/03 00:34:15;;;;;;;2.92;1.52;;;;;;;;;;5909921;28;20126;-75
2023/10/03 00:37:06;;;;;;;3.65;1.23;;;;;;;;;;5885288;28;20495;-77
2023/10/03 00:39:58;;;;;;;2.03;1.25;;;;;;;;;;5895258;28;20049;-76
2023/10/03 00:42:59;;;;;;;1.88;1.42;;;;;;;;;;5901607;28;20488;-75
2023/10/03 00:45:50;;;;;;;3.65;1.52;;;;;;;;;;5910188;28;20483;-75
2023/10/03 00:48:41;;;;;;;7.70;1.30;;;;;;;;;;5911964;28;20048;-74
2023/10/03 00:51:32;;;;;;;1.27;0.90;;;;;;;;;;5913679;28;20048;-74
2023/10/03 00:54:23;;;;;;;1.70;1.33;;;;;;;;;;5913878;28;20046;-74
2023/10/03 00:57:15;;;;;;;0.85;0.68;;;;;;;;;;5913659;28;20045;-75
2023/10/03 01:00:16;;;;;;;4.90;1.33;;;;;;;;;;5913675;28;20072;-74
2023/10/03 01:03:28;;;;;;;1.35;1.15;;;;;;;;;;5913630;28;20071;-74
2023/10/03 01:06:20;;;;;;;1.83;1.05;;;;;;;;;;5913893;28;20337;-74
2023/10/03 01:09:20;;;;;;;0.45;0.45;;;;;;;;;;5913683;28;20043;-74
2023/10/03 01:12:11;;;;;;;2.17;1.40;;;;;;;;;;5913578;28;20066;-74
2023/10/03 01:15:05;;;;;;;5.25;2.28;;;;;;;;;;5913470;28;20415;-75
2023/10/03 01:17:59;;;;;;;2.10;1.60;;;;;;;;;;5914038;28;20063;-74
2023/10/03 01:20:55;;;;;;;1.40;1.15;;;;;;;;;;5913774;28;20426;-75
2023/10/03 01:23:46;;;;;;;2.33;1.15;;;;;;;;;;5913523;28;20052;-76
2023/10/03 01:26:36;;;;;;;1.70;1.23;;;;;;;;;;5913236;28;20114;-74
2023/10/03 01:29:27;;;;;;;2.80;1.02;;;;;;;;;;5913144;28;20047;-74
2023/10/03 01:32:19;;;;;;;1.50;1.08;;;;;;;;;;5913161;28;20115;-74
2023/10/03 01:35:11;;;;;;;1.05;0.90;;;;;;;;;;5895134;28;20048;-75
2023/10/03 01:38:04;;;;;;;2.95;1.70;;;;;;;;;;5895266;28;20089;-75
2023/10/03 01:41:00;;;;;;;3.15;1.77;;;;;;;;;;5902376;28;20052;-74
2023/10/03 01:43:51;;;;;;;0.85;0.57;;;;;;;;;;5913043;28;20044;-74
2023/10/03 01:46:42;;;;;;;1.75;0.98;;;;;;;;;;5912830;28;20044;-76
2023/10/03 01:49:33;;;;;;;1.05;0.93;;;;;;;;;;5912788;28;20462;-75
2023/10/03 01:52:24;;;;;;;1.15;1.05;;;;;;;;;;5912315;28;20086;-76
2023/10/03 01:55:17;;;;;;;0.63;0.63;;;;;;;;;;5912557;28;20392;-75
2023/10/03 01:58:08;;;;;;;1.48;1.27;;;;;;;;;;5911513;28;20132;-75
2023/10/03 02:00:59;;;;;;;6.50;1.48;;;;;;;;;;5912835;28;20052;-74
2023/10/03 02:03:52;;;;;;;6.35;1.02;;;;;;;;;;5901657;28;20045;-74
2023/10/03 02:06:45;;;;;;;1.13;1.00;;;;;;;;;;5912205;28;20049;-75
2023/10/03 02:09:36;;;;;;;14.45;1.33;;;;;;;;;;5912253;28;20055;-74
2023/10/03 02:12:27;;;;;;;1.90;1.30;;;;;;;;;;5912338;28;20386;-75
2023/10/03 02:15:23;;;;;;;4.05;2.33;;;;;;;;;;5911764;28;20067;-75
2023/10/03 02:18:19;;;;;;;1.95;1.25;;;;;;;;;;5912190;28;20071;-74
2023/10/03 02:21:16;;;;;;;0.73;0.70;;;;;;;;;;5912336;28;20040;-75
2023/10/03 02:24:08;;;;;;;2.20;1.17;;;;;;;;;;5911740;28;20479;-75
2023/10/03 02:27:00;;;;;;;1.30;0.93;;;;;;;;;;5912414;28;20051;-74
2023/10/03 02:29:51;;;;;;;2.38;1.42;;;;;;;;;;5912385;28;20051;-75
2023/10/03 02:32:42;;;;;;;1.48;0.85;;;;;;;;;;5911925;28;20040;-75
2023/10/03 02:35:33;;;;;;;1.50;1.17;;;;;;;;;;5893462;28;20048;-75
2023/10/03 02:38:24;;;;;;;2.90;1.25;;;;;;;;;;5911482;28;20048;-76
2023/10/03 02:41:16;;;;;;;1.15;1.05;;;;;;;;;;5911709;28;20064;-75
2023/10/03 02:44:09;;;;;;;0.95;0.88;;;;;;;;;;5911643;28;20048;-74
2023/10/03 02:47:00;;;;;;;1.20;1.08;;;;;;;;;;5906417;28;20048;-75
2023/10/03 02:49:51;;;;;;;2.35;1.67;;;;;;;;;;5911463;28;20403;-75
2023/10/03 02:52:45;;;;;;;2.25;1.38;;;;;;;;;;5909926;28;20302;-75
2023/10/03 02:55:36;;;;;;;1.70;1.10;;;;;;;;;;5909551;28;20045;-74
2023/10/03 02:58:27;;;;;;;1.17;1.05;;;;;;;;;;5902625;28;20040;-75
2023/10/03 03:01:17;;;;;;;1.15;1.05;;;;;;;;;;5897935;28;20062;-74
2023/10/03 03:04:11;;;;;;;0.95;0.85;;;;;;;;;;5910736;28;20056;-74
2023/10/03 03:07:04;;;;;;;0.60;0.60;;;;;;;;;;5905783;28;20048;-74
2023/10/03 03:09:59;;;;;;;2.25;1.55;;;;;;;;;;5909655;28;20163;-75
2023/10/03 03:12:50;;;;;;;1.65;1.20;;;;;;;;;;5911032;28;20040;-75
2023/10/03 03:16:03;;;;;;;7.60;1.75;;;;;;;;;;5896658;28;20048;-75
2023/10/03 03:18:53;;;;;;;3.17;2.13;;;;;;;;;;5929086;28;20036;-74
2023/10/03 03:21:44;;;;;;;1.25;1.15;;;;;;;;;;5919837;28;20047;-74
2023/10/03 03:24:35;;;;;;;3.63;1.27;;;;;;;;;;5892838;28;20566;-75
2023/10/03 03:27:26;;;;;;;5.07;1.75;;;;;;;;;;5913555;28;20417;-74
2023/10/03 03:33:20;;;;;;;1.48;1.20;;;;;;;;;;5910445;28;20087;-74
2023/10/03 03:36:35;;;;;;;0.90;0.80;;;;;;;;;;5910788;28;20041;-75
2023/10/03 03:39:27;;;;;;;3.33;1.80;;;;;;;;;;5931118;28;20040;-74
2023/10/03 03:42:19;;;;;;;1.58;1.23;;;;;;;;;;5933727;28;20498;-74
2023/10/03 03:45:11;;;;;;;2.42;1.75;;;;;;;;;;5934303;28;20392;-75
2023/10/03 03:48:01;;;;;;;1.52;1.33;;;;;;;;;;5934199;28;20051;-76
2023/10/03 03:50:53;;;;;;;6.65;1.60;;;;;;;;;;5934048;28;20044;-74
2023/10/03 03:53:44;;;;;;;3.85;1.90;;;;;;;;;;5933924;28;20044;-74
2023/10/03 03:56:35;;;;;;;1.20;1.02;;;;;;;;;;5916320;28;20439;-74
2023/10/03 03:59:27;;;;;;;11.77;1.65;;;;;;;;;;5933919;28;20509;-74
2023/10/03 04:02:18;;;;;;;1.20;1.00;;;;;;;;;;5933942;28;20101;-75
2023/10/03 04:05:12;;;;;;;1.75;1.60;;;;;;;;;;5934090;28;20040;-73
2023/10/03 04:08:04;;;;;;;2.70;1.65;;;;;;;;;;5933913;28;20059;-74
2023/10/03 04:10:54;;;;;;;0.85;0.85;;;;;;;;;;5934605;28;20052;-73
2023/10/03 04:13:55;;;;;;;1.90;1.17;;;;;;;;;;5932633;28;20054;-74
2023/10/03 04:16:47;;;;;;;3.47;1.30;;;;;;;;;;5934098;28;20459;-73
2023/10/03 04:19:38;;;;;;;1.63;1.23;;;;;;;;;;5933875;28;20040;-73
2023/10/03 04:22:30;;;;;;;2.83;1.58;;;;;;;;;;5934467;28;20044;-73
2023/10/03 04:25:21;;;;;;;1.52;1.20;;;;;;;;;;5938590;28;20055;-73
2023/10/03 04:28:14;;;;;;;9.07;1.77;;;;;;;;;;5938595;28;20060;-73
2023/10/03 04:31:06;;;;;;;0.77;0.63;;;;;;;;;;5938537;28;20059;-74
2023/10/03 04:33:57;;;;;;;1.25;1.13;;;;;;;;;;5938653;28;20165;-74
2023/10/03 04:36:48;;;;;;;3.00;1.25;;;;;;;;;;5938379;28;20044;-74
2023/10/03 04:39:41;;;;;;;1.52;1.20;;;;;;;;;;5920549;28;20414;-75
2023/10/03 04:42:32;;;;;;;1.45;1.38;;;;;;;;;;5938135;28;20044;-73
2023/10/03 04:45:25;;;;;;;1.23;1.08;;;;;;;;;;5938254;28;20039;-73
2023/10/03 04:48:16;;;;;;;1.42;1.20;;;;;;;;;;5938174;28;20052;-74
2023/10/03 04:51:07;;;;;;;1.30;1.20;;;;;;;;;;5938140;28;20051;-73
2023/10/03 04:53:58;;;;;;;4.65;2.10;;;;;;;;;;5938268;28;20055;-74
2023/10/03 04:56:49;;;;;;;2.53;1.35;;;;;;;;;;5937966;28;20116;-73
2023/10/03 04:59:40;;;;;;;3.08;2.05;;;;;;;;;;5937830;28;20138;-75
2023/10/03 05:02:31;;;;;;;2.00;1.65;;;;;;;;;;5937605;28;20040;-75
2023/10/03 05:05:24;;;;;;;6.20;1.98;;;;;;;;;;5937766;28;20426;-74
2023/10/03 05:08:15;;;;;;;2.60;2.08;;;;;;;;;;5919896;28;20074;-75
2023/10/03 05:11:06;;;;;;;3.13;2.40;;;;;;;;;;5937587;28;20425;-73
2023/10/03 05:13:57;;;;;;;2.92;2.13;;;;;;;;;;5929773;28;20044;-75
2023/10/03 05:16:51;;;;;;;3.08;2.03;;;;;;;;;;5937630;28;20704;-73
2023/10/03 05:19:42;;;;;;;2.83;2.22;;;;;;;;;;5928977;28;20050;-74
2023/10/03 05:22:33;;;;;;;4.72;2.03;;;;;;;;;;5933777;28;20045;-73
2023/10/03 05:25:24;;;;;;;4.10;2.42;;;;;;;;;;5932728;28;20047;-73
2023/10/03 05:28:16;;;;;;;4.43;2.13;;;;;;;;;;5928748;28;20492;-75
2023/10/03 05:31:12;;;;;;;3.47;2.40;;;;;;;;;;5937227;28;20120;-73
2023/10/03 05:34:04;;;;;;;2.65;2.13;;;;;;;;;;5928057;28;20047;-73
2023/10/03 05:36:55;;;;;;;5.70;2.95;;;;;;;;;;5937486;28;20043;-73
2023/10/03 05:39:45;;;;;;;7.05;3.33;;;;;;;;;;5928667;28;20044;-73
2023/10/03 05:42:45;;;;;;;8.18;2.90;;;;;;;;;;5932883;28;20044;-73
2023/10/03 05:45:39;;;;;;;5.25;2.95;;;;;;;;;;5934023;28;20470;-75
2023/10/03 05:48:30;;;;;;;8.05;2.25;;;;;;;;;;5928375;28;20178;-73
2023/10/03 05:51:24;;;;;;;3.28;2.08;;;;;;;;;;5936874;28;20182;-73
2023/10/03 05:54:15;;;;;;;3.80;2.60;;;;;;;;;;5928454;28;20166;-75
2023/10/03 05:57:06;;;;;;;6.18;3.45;;;;;;;;;;5936392;28;20044;-73
2023/10/03 05:59:57;;;;;;;2.53;1.95;;;;;;;;;;5928675;28;20036;-75
2023/10/03 06:02:50;;;;;;;2.95;2.38;;;;;;;;;;5930858;28;20036;-74
2023/10/03 06:05:41;;;;;;;6.35;3.00;;;;;;;;;;5916274;28;20486;-74
2023/10/03 06:08:33;;;;;;;3.13;2.15;;;;;;;;;;5936163;28;20066;-74
2023/10/03 06:11:24;;;;;;;2.13;1.95;;;;;;;;;;5936340;28;20383;-73
2023/10/03 06:14:15;;;;;;;4.00;2.70;;;;;;;;;;5936091;28;20109;-73
2023/10/03 06:17:09;;;;;;;5.65;3.38;;;;;;;;;;5936173;28;20047;-73
2023/10/03 06:20:00;;;;;;;3.08;2.08;;;;;;;;;;5936691;28;20116;-74
2023/10/03 06:22:51;;;;;;;4.63;1.83;;;;;;;;;;5936435;28;20036;-74
2023/10/03 06:25:42;;;;;;;7.15;3.08;;;;;;;;;;5935864;28;20055;-73
2023/10/03 06:28:33;;;;;;;9.75;2.95;;;;;;;;;;5935613;28;20047;-73
2023/10/03 06:31:23;;;;;;;3.40;2.38;;;;;;;;;;5935834;28;20143;-73
2023/10/03 06:34:16;;;;;;;8.30;2.92;;;;;;;;;;5935478;28;20062;-74
2023/10/03 06:37:07;;;;;;;3.78;1.67;;;;;;;;;;5935335;28;20040;-74
2023/10/03 06:39:58;;;;;;;2.97;1.90;;;;;;;;;;5935965;28;20040;-73
2023/10/03 06:42:49;;;;;;;9.57;2.67;;;;;;;;;;5935565;28;20170;-73
2023/10/03 06:45:40;;;;;;;6.50;2.65;;;;;;;;;;5934598;28;20056;-75
2023/10/03 06:48:31;;;;;;;2.35;1.92;;;;;;;;;;5935165;28;20059;-74
2023/10/03 06:51:22;;;;;;;11.02;3.05;;;;;;;;;;5901041;28;20040;-74
2023/10/03 06:54:13;;;;;;;20.05;2.47;;;;;;;;;;5935106;28;20044;-74
2023/10/03 06:57:04;;;;;;;14.10;2.95;;;;;;;;;;5917288;28;20625;-74
2023/10/03 06:59:56;;;;;;;3.63;2.45;;;;;;;;;;5935430;28;20499;-74
2023/10/03 07:02:48;;;;;;;2.80;1.80;;;;;;;;;;5934826;28;20044;-75
2023/10/03 07:05:39;;;;;;;2.90;1.80;;;;;;;;;;5934894;28;20462;-75
2023/10/03 07:08:29;;;;;;;6.03;2.25;;;;;;;;;;5934529;28;20044;-75
2023/10/03 07:11:21;;;;;;;6.82;2.38;;;;;;;;;;5934705;28;20052;-74
2023/10/03 07:14:12;;;;;;;4.80;2.42;;;;;;;;;;5934477;28;20119;-75
2023/10/03 07:17:04;;;;;;;3.35;2.13;;;;;;;;;;5916708;28;20047;-75
2023/10/03 07:19:54;;;;;;;4.93;1.75;;;;;;;;;;5934867;28;20040;-74
2023/10/03 07:22:46;;;;;;;5.43;1.70;;;;;;;;;;5934594;28;20044;-75
2023/10/03 07:25:37;;;;;;;4.00;1.27;;;;;;;;;;5934717;28;20075;-74
2023/10/03 07:28:27;;;;;;;1.65;1.17;;;;;;;;;;5934520;28;20068;-74
2023/10/03 07:31:19;;;;;;;3.13;1.67;;;;;;;;;;5934682;28;20401;-74
2023/10/03 07:34:10;;;;;;;3.67;1.58;;;;;;;;;;5934177;28;20048;-74
2023/10/03 07:37:00;;;;;;;6.35;2.25;;;;;;;;;;5934465;28;20048;-75
2023/10/03 07:39:52;;;;;;;4.20;1.85;;;;;;;;;;5934646;28;20501;-76
2023/10/03 07:42:46;;;;;;;4.43;1.40;;;;;;;;;;5934246;28;20547;-74
2023/10/03 07:45:37;;;;;;;5.63;2.05;;;;;;;;;;5934259;28;20048;-75
2023/10/03 07:48:29;;;;;;;2.80;1.20;;;;;;;;;;5934198;28;20052;-76
2023/10/03 07:51:26;;;;;;;3.83;1.70;;;;;;;;;;5934091;28;20407;-74
2023/10/03 07:54:19;;;;;;;4.13;1.77;;;;;;;;;;5917101;28;20537;-74
2023/10/03 07:57:10;;;;;;;10.23;2.38;;;;;;;;;;5933729;28;20040;-75
2023/10/03 08:00:05;;;;;;;2.85;1.48;;;;;;;;;;5934706;28;20151;-74
2023/10/03 08:02:56;;;;;;;3.47;1.65;;;;;;;;;;5934355;28;20040;-75
2023/10/03 08:05:47;;;;;;;4.30;2.33;;;;;;;;;;5934162;28;20387;-74
2023/10/03 08:08:38;;;;;;;9.57;2.08;;;;;;;;;;5933876;28;20376;-75
2023/10/03 08:11:31;;;;;;;2.38;1.45;;;;;;;;;;5934223;28;20131;-74
2023/10/03 08:14:23;;;;;;;16.05;2.60;;;;;;;;;;5916087;28;20130;-74
2023/10/03 08:17:16;;;;;;;12.32;2.92;;;;;;;;;;5933715;28;20044;-74
2023/10/03 08:20:07;;;;;;;18.73;1.48;;;;;;;;;;5934036;28;20119;-74
2023/10/03 08:23:03;;;;;;;11.30;2.72;;;;;;;;;;5934272;28;20052;-75
2023/10/03 08:26:01;;;;;;;8.30;2.40;;;;;;;;;;5934173;28;20479;-77
2023/10/03 08:29:03;;;;;;;2.85;1.77;;;;;;;;;;5917490;28;20398;-74
2023/10/03 08:31:58;;;;;;;5.65;2.10;;;;;;;;;;5917886;28;20097;-73
2023/10/03 08:34:49;;;;;;;5.30;2.10;;;;;;;;;;5933524;28;20146;-75
2023/10/03 08:37:40;;;;;;;5.82;1.50;;;;;;;;;;5933614;28;20052;-74
2023/10/03 08:40:40;;;;;;;2.65;1.23;;;;;;;;;;5933666;28;20048;-73
2023/10/03 08:43:37;;;;;;;1.40;0.88;;;;;;;;;;5933342;28;20047;-75
2023/10/03 08:46:36;;;;;;;31.80;1.85;;;;;;;;;;5916638;28;20056;-74
2023/10/03 08:49:38;;;;;;;4.38;1.75;;;;;;;;;;5916523;28;20063;-74
2023/10/03 08:52:39;;;;;;;4.10;1.73;;;;;;;;;;5933624;28;20149;-73
2023/10/03 08:55:31;;;;;;;2.22;1.25;;;;;;;;;;5933514;28;20487;-73
2023/10/03 08:58:25;;;;;;;12.70;1.33;;;;;;;;;;5914539;28;20044;-73
2023/10/03 09:01:19;;;;;;;1.45;1.27;;;;;;;;;;5931861;28;20495;-74
2023/10/03 09:04:16;;;;;;;10.25;1.00;;;;;;;;;;5933157;28;20048;-72
2023/10/03 09:07:11;;;;;;;1.75;1.58;;;;;;;;;;5933358;28;20410;-74
2023/10/03 09:10:08;;;;;;;2.40;1.40;;;;;;;;;;5936124;28;20109;-72
2023/10/03 09:13:04;;;;;;;2.60;1.27;;;;;;;;;;5920914;28;20055;-74
2023/10/03 09:16:00;;;;;;;3.63;1.02;;;;;;;;;;5937859;28;20407;-73
2023/10/03 09:19:00;;;;;;;2.40;1.27;;;;;;;;;;5937402;28;20483;-73
2023/10/03 09:21:52;;;;;;;2.38;1.02;;;;;;;;;;5937528;28;20074;-74
2023/10/03 09:24:43;;;;;;;5.82;1.38;;;;;;;;;;5919098;28;20088;-73
2023/10/03 09:27:35;;;;;;;5.18;1.50;;;;;;;;;;5936876;28;20479;-73
2023/10/03 09:30:27;;;;;;;1.55;1.00;;;;;;;;;;5937030;28;20040;-74
2023/10/03 09:33:19;;;;;;;1.73;1.20;;;;;;;;;;5919396;28;20044;-73
2023/10/03 09:36:09;;;;;;;3.38;1.67;;;;;;;;;;5936917;28;20422;-74
2023/10/03 09:39:02;;;;;;;6.38;1.52;;;;;;;;;;5937536;28;20047;-73
2023/10/03 09:41:57;;;;;;;1.98;1.05;;;;;;;;;;5919169;28;20189;-74
2023/10/03 09:44:49;;;;;;;2.53;1.48;;;;;;;;;;5936489;28;20052;-74
2023/10/03 09:47:40;;;;;;;2.13;0.88;;;;;;;;;;5936814;28;20044;-74
2023/10/03 09:50:31;;;;;;;4.30;1.65;;;;;;;;;;5918930;28;20048;-73
2023/10/03 09:53:28;;;;;;;1.58;1.08;;;;;;;;;;5936531;28;20109;-74
2023/10/03 09:56:20;;;;;;;3.22;1.48;;;;;;;;;;5919371;28;20044;-74
2023/10/03 09:59:17;;;;;;;7.70;1.77;;;;;;;;;;5936191;28;20047;-74
2023/10/03 10:02:12;;;;;;;2.40;0.88;;;;;;;;;;5936180;28;20040;-75
2023/10/03 10:05:19;;;;;;;4.28;1.80;;;;;;;;;;5918820;28;20036;-73
2023/10/03 10:08:58;;;;;;;2.53;1.42;;;;;;;;;;5919277;28;20040;-73
2023/10/03 10:12:13;;;;;;;1.33;0.90;;;;;;;;;;5892646;28;20048;-74
2023/10/03 10:18:02;;;;;;;2.90;1.80;;;;;;;;;;5928723;28;20063;-74
2023/10/03 10:21:30;;;;;;;2.58;1.40;;;;;;;;;;5917407;28;20062;-73
2023/10/03 10:24:27;;;;;;;4.22;1.05;;;;;;;;;;5935797;28;20044;-74
2023/10/03 10:27:22;;;;;;;1.73;1.20;;;;;;;;;;5935832;28;20455;-73
2023/10/03 10:30:13;;;;;;;3.15;1.83;;;;;;;;;;5918220;28;20044;-74
2023/10/03 10:33:20;;;;;;;1.33;0.80;;;;;;;;;;5936178;28;20094;-74
2023/10/03 10:36:12;;;;;;;2.83;1.60;;;;;;;;;;5935664;28;20047;-76
2023/10/03 10:39:03;;;;;;;5.18;1.65;;;;;;;;;;5935794;28;20044;-74
2023/10/03 10:42:10;;;;;;;6.43;1.80;;;;;;;;;;5936095;28;20056;-73
2023/10/03 10:45:13;;;;;;;1.73;1.40;;;;;;;;;;5917063;28;20048;-73
2023/10/03 10:48:06;;;;;;;2.55;1.30;;;;;;;;;;5927502;28;20102;-72
2023/10/03 10:51:04;;;;;;;1.85;1.38;;;;;;;;;;5926503;28;20048;-74
2023/10/03 10:53:55;;;;;;;2.65;1.58;;;;;;;;;;5935305;28;20043;-74
2023/10/03 10:56:46;;;;;;;2.97;1.48;;;;;;;;;;5917309;28;20051;-73
2023/10/03 10:59:40;;;;;;;4.03;1.67;;;;;;;;;;5934975;28;20060;-74
2023/10/03 11:02:34;;;;;;;5.15;1.75;;;;;;;;;;5914264;28;20044;-73
2023/10/03 11:05:30;;;;;;;4.72;1.65;;;;;;;;;;5930572;28;20036;-74
2023/10/03 11:08:21;;;;;;;2.00;0.90;;;;;;;;;;5934953;28;20058;-74
2023/10/03 11:11:12;;;;;;;4.05;1.33;;;;;;;;;;5934835;28;20051;-74
2023/10/03 11:14:03;;;;;;;4.00;1.98;;;;;;;;;;5916816;28;20067;-74
2023/10/03 11:16:56;;;;;;;3.88;2.05;;;;;;;;;;5935408;28;20498;-73
2023/10/03 11:19:49;;;;;;;3.47;1.67;;;;;;;;;;5916647;28;20131;-73
2023/10/03 11:22:40;;;;;;;3.92;2.17;;;;;;;;;;5912392;28;20151;-74
2023/10/03 11:25:31;;;;;;;7.80;1.98;;;;;;;;;;5931096;28;20044;-72
2023/10/03 11:28:23;;;;;;;4.00;2.65;;;;;;;;;;5916430;28;20054;-74
2023/10/03 11:31:14;;;;;;;4.55;1.95;;;;;;;;;;5934158;28;20051;-74
2023/10/03 11:34:05;;;;;;;4.38;2.13;;;;;;;;;;5934441;28;20098;-73
2023/10/03 11:36:56;;;;;;;7.32;1.98;;;;;;;;;;5934966;28;20443;-72
2023/10/03 11:39:47;;;;;;;6.10;2.80;;;;;;;;;;5916437;28;20036;-73
2023/10/03 11:43:06;;;;;;;3.22;1.35;;;;;;;;;;5930034;28;20464;-73
2023/10/03 11:45:57;;;;;;;3.95;2.03;;;;;;;;;;5924840;28;20036;-73
2023/10/03 11:48:59;;;;;;;4.95;2.08;;;;;;;;;;5925750;28;20051;-72
2023/10/03 11:51:50;;;;;;;5.30;1.40;;;;;;;;;;5934395;28;20047;-73
2023/10/03 11:54:41;;;;;;;6.65;2.78;;;;;;;;;;5926063;28;20043;-72
2023/10/03 11:57:32;;;;;;;4.82;1.83;;;;;;;;;;5930625;28;20048;-75
2023/10/03 12:00:26;;;;;;;6.43;2.55;;;;;;;;;;5929399;28;20048;-75
2023/10/03 12:03:17;;;;;;;9.55;3.70;;;;;;;;;;5925811;28;20055;-74
2023/10/03 12:06:08;;;;;;;13.18;4.45;;;;;;;;;;5916251;28;20044;-74
2023/10/03 12:08:59;;;;;;;8.02;3.00;;;;;;;;;;5933282;28;20580;-73
2023/10/03 12:11:50;;;;;;;4.45;2.78;;;;;;;;;;5932877;28;20058;-74
2023/10/03 12:14:44;;;;;;;2.65;1.73;;;;;;;;;;5924910;28;20064;-73
2023/10/03 12:17:35;;;;;;;6.10;2.50;;;;;;;;;;5929501;28;20106;-74
2023/10/03 12:20:26;;;;;;;13.52;2.65;;;;;;;;;;5927248;28;20047;-72
2023/10/03 12:23:18;;;;;;;6.18;1.95;;;;;;;;;;5923417;28;20048;-72
2023/10/03 12:26:08;;;;;;;7.55;2.85;;;;;;;;;;5932111;28;20675;-73
2023/10/03 12:29:17;;;;;;;6.65;2.85;;;;;;;;;;5924336;28;20051;-72
2023/10/03 12:32:07;;;;;;;8.63;2.58;;;;;;;;;;5932723;28;20044;-73
2023/10/03 12:34:58;;;;;;;8.00;2.45;;;;;;;;;;5933826;28;20055;-75
2023/10/03 12:37:53;;;;;;;6.95;2.67;;;;;;;;;;5928012;28;20395;-73
2023/10/03 12:40:47;;;;;;;5.90;2.05;;;;;;;;;;5931127;28;20044;-73
2023/10/03 12:43:39;;;;;;;5.30;2.47;;;;;;;;;;5916816;28;20044;-74
2023/10/03 12:46:29;;;;;;;6.70;2.35;;;;;;;;;;5938357;28;20471;-75
2023/10/03 12:49:23;;;;;;;4.43;1.85;;;;;;;;;;5930113;28;20475;-74
2023/10/03 12:52:13;;;;;;;3.80;2.42;;;;;;;;;;5937110;28;20671;-75
2023/10/03 12:55:07;;;;;;;9.48;3.00;;;;;;;;;;5930929;28;20051;-73
2023/10/03 12:58:02;;;;;;;5.32;2.17;;;;;;;;;;5931564;28;20049;-73
2023/10/03 13:00:52;;;;;;;4.95;2.03;;;;;;;;;;5937675;28;20534;-74
2023/10/03 13:03:46;;;;;;;4.95;2.28;;;;;;;;;;5929477;28;20048;-73
2023/10/03 13:06:38;;;;;;;14.63;5.22;;;;;;;;;;5937747;28;20047;-73
2023/10/03 13:09:32;;;;;;;8.27;3.20;;;;;;;;;;5929527;28;20479;-72
2023/10/03 13:12:25;;;;;;;4.47;2.40;;;;;;;;;;5935159;28;20048;-74
2023/10/03 13:15:18;;;;;;;8.07;3.88;;;;;;;;;;5931576;28;20125;-74
2023/10/03 13:18:13;;;;;;;8.15;2.72;;;;;;;;;;5919565;28;20135;-73
2023/10/03 13:21:04;;;;;;;4.10;2.58;;;;;;;;;;5937711;28;20047;-73
2023/10/03 13:23:55;;;;;;;10.77;2.35;;;;;;;;;;5929698;28;20048;-74
2023/10/03 13:26:46;;;;;;;4.63;2.13;;;;;;;;;;5937485;28;20080;-73
2023/10/03 13:29:37;;;;;;;10.98;3.05;;;;;;;;;;5919383;28;20047;-72
2023/10/03 13:32:28;;;;;;;5.20;2.33;;;;;;;;;;5934262;28;20064;-72
2023/10/03 13:35:21;;;;;;;7.43;3.38;;;;;;;;;;5932021;28;20430;-74
2023/10/03 13:38:13;;;;;;;4.90;2.92;;;;;;;;;;5928656;28;20048;-74
2023/10/03 13:41:04;;;;;;;7.47;3.20;;;;;;;;;;5937122;28;20043;-75
2023/10/03 13:43:55;;;;;;;5.30;2.72;;;;;;;;;;5929110;28;20040;-73
2023/10/03 13:46:46;;;;;;;7.57;2.30;;;;;;;;;;5937081;28;20066;-72
2023/10/03 13:49:37;;;;;;;7.55;3.47;;;;;;;;;;5918981;28;20044;-73
2023/10/03 13:52:29;;;;;;;5.53;2.35;;;;;;;;;;5933720;28;20395;-74
2023/10/03 13:55:23;;;;;;;6.30;2.65;;;;;;;;;;5924832;28;20048;-73
2023/10/03 13:58:14;;;;;;;6.90;3.63;;;;;;;;;;5927910;28;20052;-74
2023/10/03 14:01:12;;;;;;;7.15;3.08;;;;;;;;;;5936854;28;20493;-73
2023/10/03 14:04:05;;;;;;;;;;;;;;;;;;5928707;28;20050;-74
2023/10/03 14:06:56;;;;;;;10.13;3.42;;;;;;;;;;5919219;28;19920;-72
2023/10/03 14:09:47;;;;;;;4.10;2.08;;;;;;;;;;5918053;28;20070;-73
2023/10/03 14:12:37;;;;;;;6.78;3.47;;;;;;;;;;5931735;28;20055;-73
2023/10/03 14:15:29;;;;;;;8.43;3.13;;;;;;;;;;5932307;28;20112;-72
2023/10/03 14:18:23;;;;;;;13.80;3.70;;;;;;;;;;5907672;28;20060;-73
2023/10/03 14:21:14;;;;;;;5.05;2.55;;;;;;;;;;5935590;28;20051;-72
2023/10/03 14:24:07;;;;;;;7.05;2.55;;;;;;;;;;5935761;28;20040;-72
2023/10/03 14:26:59;;;;;;;18.73;3.28;;;;;;;;;;5936498;28;20048;-74
2023/10/03 14:29:50;;;;;;;8.32;2.65;;;;;;;;;;5936159;28;20520;-74
2023/10/03 14:32:41;;;;;;;6.57;2.70;;;;;;;;;;5931061;28;20040;-74
2023/10/03 14:35:32;;;;;;;4.57;2.28;;;;;;;;;;5914645;28;20048;-72
2023/10/03 14:38:23;;;;;;;7.60;2.30;;;;;;;;;;5935329;28;20040;-72
2023/10/03 14:41:15;;;;;;;6.28;3.08;;;;;;;;;;5935592;28;20054;-74
2023/10/03 14:44:10;;;;;;;7.05;2.35;;;;;;;;;;5935384;28;20602;-73
2023/10/03 14:47:01;;;;;;;6.03;2.30;;;;;;;;;;5917899;28;20052;-74
2023/10/03 14:49:54;;;;;;;8.63;2.92;;;;;;;;;;5925006;28;20044;-72
2023/10/03 14:52:45;;;;;;;4.82;2.47;;;;;;;;;;5929684;28;20055;-75
2023/10/03 14:55:36;;;;;;;7.18;2.42;;;;;;;;;;5932347;28;20043;-73
2023/10/03 14:58:28;;;;;;;4.70;2.10;;;;;;;;;;5924774;28;20519;-73
2023/10/03 15:01:19;;;;;;;7.95;2.63;;;;;;;;;;5934475;28;20048;-74
2023/10/03 15:04:10;;;;;;;8.80;2.05;;;;;;;;;;5934838;28;20506;-74
2023/10/03 15:07:01;;;;;;;8.15;3.50;;;;;;;;;;5934413;28;20090;-75
2023/10/03 15:09:51;;;;;;;4.28;2.78;;;;;;;;;;5935445;28;20056;-74
2023/10/03 15:12:42;;;;;;;3.80;2.33;;;;;;;;;;5930129;28;20044;-74
2023/10/03 15:15:33;;;;;;;7.80;2.67;;;;;;;;;;5932165;28;20043;-74
2023/10/03 15:18:25;;;;;;;4.05;2.28;;;;;;;;;;5934649;28;20051;-73
2023/10/03 15:21:16;;;;;;;4.28;2.30;;;;;;;;;;5934940;28;20127;-73
2023/10/03 15:24:07;;;;;;;3.55;2.03;;;;;;;;;;5934589;28;20126;-73
2023/10/03 15:26:58;;;;;;;10.45;3.17;;;;;;;;;;5935477;28;20103;-74
2023/10/03 15:29:49;;;;;;;6.15;1.80;;;;;;;;;;5934339;28;20043;-72
2023/10/03 15:32:40;;;;;;;5.15;2.28;;;;;;;;;;5912017;28;20056;-72
2023/10/03 15:35:31;;;;;;;4.60;2.55;;;;;;;;;;5931231;28;20048;-72
2023/10/03 15:38:23;;;;;;;4.15;2.03;;;;;;;;;;5934113;28;20036;-73
2023/10/03 15:41:15;;;;;;;6.82;2.20;;;;;;;;;;5934357;28;20502;-73
2023/10/03 15:44:09;;;;;;;4.38;2.10;;;;;;;;;;5916191;28;20047;-74
2023/10/03 15:47:01;;;;;;;4.13;1.95;;;;;;;;;;5934878;28;20490;-73
2023/10/03 15:49:55;;;;;;;5.25;2.58;;;;;;;;;;5934637;28;20423;-74
2023/10/03 15:52:46;;;;;;;3.75;1.63;;;;;;;;;;5928808;28;20048;-73
2023/10/03 15:55:38;;;;;;;4.50;2.28;;;;;;;;;;5931533;28;20487;-73
2023/10/03 15:58:29;;;;;;;4.55;1.67;;;;;;;;;;5934101;28;20051;-73
2023/10/03 16:01:22;;;;;;;5.75;2.13;;;;;;;;;;5934380;28;20044;-72
2023/10/03 16:04:13;;;;;;;4.82;1.73;;;;;;;;;;5933075;28;20379;-72
2023/10/03 16:07:07;;;;;;;6.53;2.45;;;;;;;;;;5934236;28;20044;-73
2023/10/03 16:10:04;;;;;;;2.88;1.95;;;;;;;;;;5934910;28;20051;-73
2023/10/03 16:12:55;;;;;;;6.47;2.25;;;;;;;;;;5927763;28;20044;-73
2023/10/03 16:15:47;;;;;;;2.80;1.92;;;;;;;;;;5932631;28;20075;-73
2023/10/03 16:18:38;;;;;;;5.95;2.25;;;;;;;;;;5936436;28;20048;-73
2023/10/03 16:21:29;;;;;;;6.57;2.33;;;;;;;;;;5939211;28;20482;-73
2023/10/03 16:24:21;;;;;;;6.32;2.50;;;;;;;;;;5938852;28;20043;-73
2023/10/03 16:27:12;;;;;;;3.95;1.65;;;;;;;;;;5938738;28;20487;-73
2023/10/03 16:30:07;;;;;;;4.40;1.92;;;;;;;;;;5938676;28;20135;-73
2023/10/03 16:32:59;;;;;;;38.25;2.42;;;;;;;;;;5939528;28;20044;-73
2023/10/03 16:35:50;;;;;;;5.25;2.67;;;;;;;;;;5938869;28;20222;-73
2023/10/03 16:38:41;;;;;;;4.72;2.47;;;;;;;;;;5938455;28;20056;-74
2023/10/03 16:41:32;;;;;;;3.10;1.45;;;;;;;;;;5938506;28;20044;-74
2023/10/03 16:44:23;;;;;;;6.78;1.83;;;;;;;;;;5920466;28;20479;-73
2023/10/03 16:47:16;;;;;;;4.35;2.47;;;;;;;;;;5920452;28;20053;-74
2023/10/03 16:50:10;;;;;;;2.70;1.98;;;;;;;;;;5938554;28;20044;-73
2023/10/03 16:53:02;;;;;;;7.15;3.08;;;;;;;;;;5938339;28;20044;-73
2023/10/03 16:55:52;;;;;;;4.65;1.88;;;;;;;;;;5920987;28;20442;-73
2023/10/03 16:58:43;;;;;;;3.20;1.88;;;;;;;;;;5919717;28;20044;-73
2023/10/03 17:01:34;;;;;;;5.00;1.55;;;;;;;;;;5938199;28;20052;-73
2023/10/03 17:04:25;;;;;;;2.80;2.08;;;;;;;;;;5937973;28;20036;-74
2023/10/03 17:07:17;;;;;;;2.95;1.63;;;;;;;;;;5919936;28;20054;-73
2023/10/03 17:10:12;;;;;;;3.00;1.75;;;;;;;;;;5938172;28;20047;-73
2023/10/03 17:13:05;;;;;;;21.83;1.90;;;;;;;;;;5937775;28;20044;-73
2023/10/03 17:15:56;;;;;;;3.72;2.47;;;;;;;;;;5938534;28;20048;-73
2023/10/03 17:18:47;;;;;;;3.33;1.75;;;;;;;;;;5937422;28;20040;-73
2023/10/03 17:21:38;;;;;;;4.78;2.08;;;;;;;;;;5937624;28;20044;-73
2023/10/03 17:24:29;;;;;;;4.60;2.20;;;;;;;;;;5937694;28;20044;-73